Abidjan, Ivory Coast

1:02 AM GMT on July 14, 2014 (GMT +0000)
Felix Houphouet-Boigny (DIAP) Elev 26 ft | 5.26 °N, 3.93 °W | Change Station

Current weather conditions updated 32 minutes ago

Mostly Cloudy
Mostly Cloudy
79 °F
Feels Like 79 °F
N
12
Wind Variable Wind from SSW

Today is forecast to be Cooler than yesterday. Showers ending by midday.

Today
High -- | Low -- °F
--% Chance of Precip.
Yesterday
High -- | Low -- °F
Precip. -- in
6:09 AM 6:33 PM
Waning Gibbous, 96% visible
Pressure 29.95 in
Visibility 5.0 miles
Clouds Mostly Cloudy 1100 ft
Mostly Cloudy 3000 ft
Dew Point 75 °F
Humidity 89%
Rainfall 0.00 in
Snow Depth Not available.
UV 0 out of 12
Pollen Not available.
Air Quality Not available.
Flu Activity Not available.
METAR DIAP 140030Z 21010KT 8000 BKN011 BKN030 26/24 Q1014 NOSIG

More Conditions Fewer Conditions

Pressure 29.95 in
Visibility 5.0 miles
Clouds Mostly Cloudy 1100 ft
Mostly Cloudy 3000 ft
Dew Point 75 °F
Humidity 89%
Rainfall 0.00 in
Snow Depth Not available.
UV 0 out of 12
Pollen Not available.
Air Quality Not available.
Flu Activity Not available.
METAR DIAP 140030Z 21010KT 8000 BKN011 BKN030 26/24 Q1014 NOSIG

More Conditions Fewer Conditions

10-Day Weather Forecast

Almanac

Astronomy

Jul. 14, 2014 Rise Set
Actual Time 6:09 AM GMT 6:33 PM GMT
Civil Twilight 5:47 AM GMT 6:55 PM GMT
Nautical Twilight 5:20 AM GMT 7:22 PM GMT
Astronomical Twilight 4:54 AM GMT 7:48 PM GMT
Moon 8:36 PM GMT 7:59 AM GMT
Length of Visible Light 13h 08m
Length of Day
12h 23m
Tomorrow will be 0m 8s shorter.
Waning Gibbous, 96% of the Moon is Illuminated
Jul 13
Waning Gibbous
Jul 18
Last Quarter
Jul 26
New
Aug 3
First Quarter
Aug 10
Full

Yesterday's Extremes

Country Highs Country Lows

Community

WunderPhotos

Upload Photos

1,733,494 photos uploaded!

Nearby

Snow Depth

Not available.

Earthquake Activity

City Distance Mag. Time & Date
No recent earthquake activity has been reported nearby.
Minimum magnitude displayed is 2.5.

Coastal Water Temperatures

Place Temperature
No Stations Reporting

Nearby Weather Stations

There are no personal weather stations in this area.